Main page
METAR-TAF:

METAR-TAF

Airports :

Kuusamo Airport

Kuusamo, Finland

latitude: 65-58N, longitude: 029-11E, elevation: 262 m

Current weather observation

The report was made 35 minutes ago, at 02:20 UTC
Wind 5 kt from the East/Southeast, varying between East/Northeast and Southeast
Temperature -7°C
Humidity 93%
Pressure 975 hPa
Visibility 10 km or more
Overcast at a height of 400 ft

METAR: EFKS 090220Z AUTO 11005KT 060V140 9999 OVC004 M07/M08 Q0975

Time: 04:55 (02:55 UTC)

Forecast

The report was made 9 hours and 24 minutes ago, at 17:31 UTC
Forecast valid from 08 at 18 UTC to 08 at 21 UTC
Wind 8 kt from the Southwest
Visibility 10 km or more
Overcast at a height of 500 ft
light snow
Temporary
from 08 at 18 UTC to 08 at 21 UTC
Visibility: 4000 m
Overcast at a height of 300 ft
(light) freezing, drizzle

TAF: EFKS 081731Z 0818/0821 23008KT 9999 -SN OVC005 TEMPO 0818/0821 4000 -FZDZ OVC003

Weather observations and forecasts of more than 4000 airports (METAR and TAF reports).

The available stations are represented by yellow and red dots on the map.

Hover mouse over dot to see the name of the station.

Then click to see weather observations and forecasts.

To change the map : click on the green buttons with a black cross to zoom in, on the green button with a dash to zoom out, or on the green arrows for adjacent maps.


METAR-TAF: